Time;durP1;ratioP1;P1;durP2;ratioP2;P2;SDS_P1;SDS_P2;PMS_P1;PMS_P2;Temp;Humidity;BMP_temperature;BMP_pressure;BME280_temperature;BME280_humidity;BME280_pressure;Samples;Min_cycle;Max_cycle;Signal;HPM_P1;HPM_P2
2021/07/21 00:01:55;;;;;;;;;;;20.70;60.10;;;;;;4977258;28;20626;-61
2021/07/21 00:04:20;;;;;;;;;;;20.70;60.10;;;;;;4975577;28;19914;-62
2021/07/21 00:06:46;;;;;;;;;;;20.70;60.70;;;;;;4976825;28;19913;-61
2021/07/21 00:09:11;;;;;;;;;;;20.70;60.10;;;;;;4976219;28;19920;-60
2021/07/21 00:14:20;;;;;;;;;;;20.70;60.00;;;;;;4976356;28;19968;-61
2021/07/21 00:16:52;;;;;;;;;;;20.60;60.00;;;;;;4976475;28;20371;-62
2021/07/21 00:22:02;;;;;;;;;;;20.60;60.00;;;;;;4991928;28;19967;-61
2021/07/21 00:24:27;;;;;;;;;;;20.60;59.90;;;;;;4994905;28;19941;-62
2021/07/21 00:26:53;;;;;;;;;;;20.60;59.90;;;;;;4995890;28;19956;-61
2021/07/21 00:31:44;;;;;;;;;;;20.60;59.80;;;;;;5037885;23;19932;-62
2021/07/21 00:34:10;;;;;;;;;;;20.60;59.80;;;;;;5041090;28;19913;-62
2021/07/21 00:36:35;;;;;;;;;;;20.60;59.80;;;;;;5034649;28;19917;-63
2021/07/21 00:39:01;;;;;;;;;;;20.60;59.80;;;;;;5038669;28;20287;-63
2021/07/21 00:41:26;;;;;;;;;;;20.60;59.80;;;;;;5029259;28;19917;-62
2021/07/21 00:43:52;;;;;;;;;;;20.60;59.80;;;;;;5027332;28;19917;-62
2021/07/21 00:46:17;;;;;;;;;;;20.60;59.70;;;;;;5023904;28;19920;-62
2021/07/21 00:48:42;;;;;;;;;;;20.60;59.80;;;;;;5027629;28;20267;-62
2021/07/21 00:51:08;;;;;;;;;;;20.60;59.70;;;;;;5023249;28;19913;-62
2021/07/21 00:53:34;;;;;;;;;;;20.50;59.60;;;;;;5014560;28;19921;-62
2021/07/21 00:55:59;;;;;;;;;;;20.50;59.60;;;;;;5016101;28;20022;-63
2021/07/21 00:58:25;;;;;;;;;;;20.50;59.60;;;;;;5015869;28;19951;-63
2021/07/21 01:00:51;;;;;;;;;;;20.60;59.60;;;;;;5039415;28;19924;-62
2021/07/21 01:03:17;;;;;;;;;;;20.60;59.60;;;;;;4996339;28;19929;-63
2021/07/21 01:05:42;;;;;;;;;;;20.50;59.60;;;;;;5012414;28;19917;-63
2021/07/21 01:08:09;;;;;;;;;;;20.50;59.50;;;;;;5026015;28;20464;-62
2021/07/21 01:10:34;;;;;;;;;;;20.50;60.10;;;;;;5037591;28;19924;-63
2021/07/21 01:13:07;;;;;;;;;;;20.50;59.50;;;;;;5017715;28;19913;-63
2021/07/21 01:15:35;;;;;;;;;;;20.50;59.50;;;;;;4994723;28;19914;-63
2021/07/21 01:18:03;;;;;;;;;;;20.60;59.50;;;;;;5004278;28;19928;-62
2021/07/21 01:20:47;;;;;;;;;;;20.50;59.70;;;;;;5031885;28;20485;-63
2021/07/21 01:23:17;;;;;;;;;;;20.50;59.60;;;;;;5033943;28;19960;-62
2021/07/21 01:25:44;;;;;;;;;;;20.50;59.50;;;;;;5029485;28;19917;-63
2021/07/21 01:28:10;;;;;;;;;;;20.50;59.30;;;;;;5032388;28;19916;-62
2021/07/21 01:30:36;;;;;;;;;;;20.50;59.50;;;;;;5026044;28;19935;-62
2021/07/21 01:33:01;;;;;;;;;;;20.50;59.50;;;;;;5025932;28;19917;-63
2021/07/21 01:35:28;;;;;;;;;;;20.50;59.40;;;;;;5037445;28;19940;-63
2021/07/21 01:38:02;;;;;;;;;;;20.50;59.40;;;;;;5030915;28;19928;-62
2021/07/21 01:40:28;;;;;;;;;;;20.50;59.30;;;;;;5038249;28;19996;-62
2021/07/21 01:42:57;;;;;;;;;;;20.50;59.40;;;;;;5025474;28;19956;-63
2021/07/21 01:45:23;;;;;;;;;;;20.50;59.40;;;;;;5031744;28;20353;-63
2021/07/21 01:47:49;;;;;;;;;;;20.50;59.30;;;;;;5029469;28;19917;-63
2021/07/21 01:50:14;;;;;;;;;;;20.50;59.40;;;;;;5031149;28;20305;-62
2021/07/21 01:52:41;;;;;;;;;;;20.50;59.40;;;;;;5021383;28;20065;-62
2021/07/21 01:55:06;;;;;;;;;;;20.50;59.30;;;;;;5010075;28;19917;-63
2021/07/21 01:57:32;;;;;;;;;;;20.50;59.20;;;;;;5029793;28;20435;-63
2021/07/21 01:59:59;;;;;;;;;;;20.50;59.20;;;;;;5033254;28;22080;-62
2021/07/21 02:02:24;;;;;;;;;;;20.50;59.80;;;;;;5041717;28;19921;-63
2021/07/21 02:04:50;;;;;;;;;;;20.40;59.10;;;;;;5026733;28;19921;-63
2021/07/21 02:07:16;;;;;;;;;;;20.40;59.10;;;;;;5008293;28;19972;-63
2021/07/21 02:09:42;;;;;;;;;;;20.40;59.20;;;;;;5000409;28;20619;-63
2021/07/21 02:12:07;;;;;;;;;;;20.40;59.10;;;;;;5002730;28;19913;-63
2021/07/21 02:14:32;;;;;;;;;;;20.40;59.20;;;;;;5000538;28;19918;-62
2021/07/21 02:16:58;;;;;;;;;;;20.40;59.20;;;;;;5001668;28;19921;-63
2021/07/21 02:19:24;;;;;;;;;;;20.40;59.10;;;;;;5001662;28;19924;-62
2021/07/21 02:21:50;;;;;;;;;;;20.40;59.10;;;;;;4999815;28;20235;-62
2021/07/21 02:24:15;;;;;;;;;;;20.40;59.10;;;;;;5000539;28;19921;-63
2021/07/21 02:26:41;;;;;;;;;;;20.40;59.10;;;;;;5001691;28;20502;-62
2021/07/21 02:29:06;;;;;;;;;;;20.30;59.00;;;;;;5012018;28;19921;-62
2021/07/21 02:31:39;;;;;;;;;;;20.40;59.10;;;;;;5024221;28;19999;-63
2021/07/21 02:34:05;;;;;;;;;;;20.40;59.00;;;;;;5035386;28;19921;-63
2021/07/21 02:36:31;;;;;;;;;;;20.40;59.00;;;;;;5032724;28;19923;-63
2021/07/21 02:38:56;;;;;;;;;;;20.30;58.90;;;;;;5040728;28;19913;-63
2021/07/21 02:41:22;;;;;;;;;;;20.30;58.90;;;;;;5031670;28;19920;-63
2021/07/21 02:43:47;;;;;;;;;;;20.30;59.00;;;;;;5026590;28;20430;-63
2021/07/21 02:46:12;;;;;;;;;;;20.30;58.90;;;;;;5025934;28;19966;-65
2021/07/21 02:48:38;;;;;;;;;;;20.30;58.90;;;;;;5030315;28;19924;-62
2021/07/21 02:51:07;;;;;;;;;;;20.30;58.90;;;;;;5036029;28;20000;-63
2021/07/21 02:53:33;;;;;;;;;;;20.30;59.00;;;;;;5034332;28;19920;-62
2021/07/21 02:56:00;;;;;;;;;;;20.30;59.00;;;;;;5034756;28;19920;-63
2021/07/21 02:58:33;;;;;;;;;;;20.30;59.00;;;;;;5028317;28;20394;-63
2021/07/21 03:01:00;;;;;;;;;;;20.30;58.90;;;;;;5039968;28;19987;-62
2021/07/21 03:03:26;;;;;;;;;;;20.30;58.80;;;;;;5036500;28;20010;-63
2021/07/21 03:05:55;;;;;;;;;;;20.20;58.90;;;;;;5031887;28;19917;-63
2021/07/21 03:08:21;;;;;;;;;;;20.20;58.80;;;;;;5024032;28;19959;-63
2021/07/21 03:10:46;;;;;;;;;;;20.20;58.70;;;;;;5027728;28;20011;-63
2021/07/21 03:13:13;;;;;;;;;;;20.20;58.60;;;;;;5028132;28;20321;-63
2021/07/21 03:15:39;;;;;;;;;;;20.20;58.70;;;;;;5022430;28;20509;-62
2021/07/21 03:18:07;;;;;;;;;;;20.20;58.70;;;;;;5017133;28;19933;-62
2021/07/21 03:20:33;;;;;;;;;;;20.20;58.70;;;;;;5027662;28;19921;-63
2021/07/21 03:22:59;;;;;;;;;;;20.20;58.60;;;;;;5031142;28;19928;-62
2021/07/21 03:25:25;;;;;;;;;;;20.20;58.70;;;;;;5041108;28;19913;-62
2021/07/21 03:27:50;;;;;;;;;;;20.20;58.70;;;;;;5033595;28;19921;-62
2021/07/21 03:30:16;;;;;;;;;;;20.20;58.80;;;;;;5027069;28;20059;-62
2021/07/21 03:32:42;;;;;;;;;;;20.20;58.70;;;;;;5033405;28;20516;-63
2021/07/21 03:35:07;;;;;;;;;;;20.20;58.70;;;;;;5032256;28;19982;-63
2021/07/21 03:37:33;;;;;;;;;;;20.20;58.70;;;;;;5053412;22;19929;-59
2021/07/21 03:39:59;;;;;;;;;;;20.20;58.70;;;;;;5014721;28;19922;-59
2021/07/21 03:42:24;;;;;;;;;;;20.10;58.70;;;;;;5003230;28;19937;-60
2021/07/21 03:44:50;;;;;;;;;;;20.10;58.80;;;;;;4973793;28;19922;-60
2021/07/21 03:47:16;;;;;;;;;;;20.10;58.80;;;;;;4973892;28;19913;-61
2021/07/21 03:49:41;;;;;;;;;;;20.10;58.70;;;;;;4974910;28;20008;-60
2021/07/21 03:52:09;;;;;;;;;;;20.10;58.70;;;;;;4973584;28;19921;-58
2021/07/21 03:54:35;;;;;;;;;;;20.10;58.80;;;;;;4975868;28;19980;-59
2021/07/21 03:57:00;;;;;;;;;;;20.10;58.70;;;;;;4973844;28;19922;-60
2021/07/21 03:59:26;;;;;;;;;;;20.10;58.80;;;;;;4973681;28;19924;-61
2021/07/21 04:01:53;;;;;;;;;;;20.10;58.90;;;;;;4969403;28;20306;-61
2021/07/21 04:04:19;;;;;;;;;;;20.10;58.90;;;;;;4981800;28;20374;-60
2021/07/21 04:06:44;;;;;;;;;;;20.10;59.00;;;;;;4994446;28;19913;-58
2021/07/21 04:09:12;;;;;;;;;;;20.10;59.00;;;;;;4998804;28;19970;-60
2021/07/21 04:11:37;;;;;;;;;;;20.10;59.00;;;;;;5015919;28;19917;-60
2021/07/21 04:14:04;;;;;;;;;;;20.00;58.90;;;;;;5004329;28;19940;-60
2021/07/21 04:16:31;;;;;;;;;;;20.00;59.00;;;;;;4996675;28;19924;-61
2021/07/21 04:18:56;;;;;;;;;;;20.00;59.00;;;;;;5008920;28;20360;-60
2021/07/21 04:21:22;;;;;;;;;;;20.00;59.10;;;;;;5014173;28;19943;-59
2021/07/21 04:23:48;;;;;;;;;;;20.00;59.20;;;;;;5012576;28;20305;-60
2021/07/21 04:26:14;;;;;;;;;;;20.00;59.20;;;;;;5016527;28;19944;-59
2021/07/21 04:28:39;;;;;;;;;;;20.00;59.30;;;;;;5009810;28;20744;-59
2021/07/21 04:31:04;;;;;;;;;;;20.00;59.30;;;;;;5016485;28;19921;-63
2021/07/21 04:33:31;;;;;;;;;;;20.00;59.50;;;;;;4985076;28;19922;-63
2021/07/21 04:35:57;;;;;;;;;;;20.10;59.90;;;;;;4980652;28;19918;-63
2021/07/21 04:38:22;;;;;;;;;;;20.10;60.00;;;;;;4979687;28;19925;-63
2021/07/21 04:40:50;;;;;;;;;;;20.10;60.60;;;;;;5005869;28;19917;-63
2021/07/21 04:43:15;;;;;;;;;;;20.10;60.60;;;;;;5005309;28;19956;-63
2021/07/21 04:45:41;;;;;;;;;;;20.10;60.60;;;;;;5009332;28;19976;-64
2021/07/21 04:48:07;;;;;;;;;;;20.20;60.70;;;;;;4994149;28;19921;-63
2021/07/21 04:50:32;;;;;;;;;;;20.20;60.80;;;;;;4996040;28;19945;-63
2021/07/21 04:52:58;;;;;;;;;;;20.20;61.00;;;;;;4993794;28;19914;-63
2021/07/21 04:55:23;;;;;;;;;;;20.10;60.80;;;;;;5010223;28;20385;-62
2021/07/21 04:57:49;;;;;;;;;;;20.20;61.10;;;;;;5009020;28;19995;-62
2021/07/21 05:00:15;;;;;;;;;;;20.10;61.00;;;;;;4997622;28;19914;-63
2021/07/21 05:02:41;;;;;;;;;;;20.10;61.30;;;;;;4996759;28;19923;-62
2021/07/21 05:05:06;;;;;;;;;;;20.10;61.20;;;;;;4997219;28;19913;-63
2021/07/21 05:07:32;;;;;;;;;;;20.10;61.20;;;;;;4996077;28;19914;-64
2021/07/21 05:09:57;;;;;;;;;;;20.00;61.30;;;;;;4997753;28;19917;-61
2021/07/21 05:12:23;;;;;;;;;;;20.10;61.40;;;;;;5019501;28;19917;-63
2021/07/21 05:14:48;;;;;;;;;;;20.10;61.50;;;;;;5021354;28;19917;-64
2021/07/21 05:17:13;;;;;;;;;;;20.10;61.50;;;;;;5010084;28;19921;-62
2021/07/21 05:19:39;;;;;;;;;;;20.10;61.50;;;;;;5009840;28;20471;-62
2021/07/21 05:22:04;;;;;;;;;;;20.10;61.60;;;;;;5007865;28;19917;-63
2021/07/21 05:24:30;;;;;;;;;;;20.10;61.50;;;;;;5001915;28;19918;-62
2021/07/21 05:26:55;;;;;;;;;;;20.10;61.70;;;;;;5000631;28;19957;-63
2021/07/21 05:29:22;;;;;;;;;;;20.10;61.80;;;;;;5014304;28;21284;-62
2021/07/21 05:31:48;;;;;;;;;;;20.10;61.90;;;;;;5003292;28;20594;-62
2021/07/21 05:34:13;;;;;;;;;;;20.10;62.00;;;;;;4998809;28;19968;-62
2021/07/21 05:36:39;;;;;;;;;;;20.10;62.30;;;;;;4997128;28;19917;-61
2021/07/21 05:39:05;;;;;;;;;;;20.10;62.60;;;;;;5012224;28;19921;-61
2021/07/21 05:41:30;;;;;;;;;;;20.10;62.70;;;;;;5019941;28;20007;-62
2021/07/21 05:43:55;;;;;;;;;;;20.10;62.80;;;;;;5015782;28;19956;-61
2021/07/21 05:46:21;;;;;;;;;;;20.20;62.80;;;;;;5020747;28;19923;-62
2021/07/21 05:48:46;;;;;;;;;;;20.20;62.80;;;;;;5035102;28;19913;-58
2021/07/21 05:51:12;;;;;;;;;;;20.10;62.60;;;;;;5021391;28;19972;-62
2021/07/21 05:53:37;;;;;;;;;;;20.20;62.50;;;;;;5021459;28;19921;-64
2021/07/21 05:56:05;;;;;;;;;;;20.20;62.50;;;;;;5021066;28;19913;-63
2021/07/21 05:58:30;;;;;;;;;;;20.20;62.50;;;;;;5017208;28;19928;-64
2021/07/21 06:00:56;;;;;;;;;;;20.20;62.50;;;;;;5021176;28;19917;-61
2021/07/21 06:03:24;;;;;;;;;;;20.20;62.60;;;;;;5013116;28;20298;-62
2021/07/21 06:05:49;;;;;;;;;;;20.10;63.00;;;;;;5020783;28;19920;-62
2021/07/21 06:08:15;;;;;;;;;;;20.10;62.60;;;;;;5021044;28;20290;-62
2021/07/21 06:10:40;;;;;;;;;;;20.20;62.60;;;;;;5020024;28;19940;-61
2021/07/21 06:13:06;;;;;;;;;;;20.20;62.50;;;;;;5015703;28;19927;-59
2021/07/21 06:15:31;;;;;;;;;;;20.10;62.50;;;;;;5020325;28;19937;-62
2021/07/21 06:17:57;;;;;;;;;;;20.10;62.60;;;;;;5020816;28;20282;-61
2021/07/21 06:20:22;;;;;;;;;;;20.20;62.50;;;;;;5020548;28;19974;-60
2021/07/21 06:22:48;;;;;;;;;;;20.20;62.70;;;;;;5018028;28;20292;-63
2021/07/21 06:25:13;;;;;;;;;;;20.10;63.20;;;;;;5020900;28;19967;-62
2021/07/21 06:27:39;;;;;;;;;;;20.10;63.60;;;;;;5017750;28;19923;-63
2021/07/21 06:30:06;;;;;;;;;;;20.10;63.90;;;;;;5017699;28;20384;-62
2021/07/21 06:32:35;;;;;;;;;;;20.20;64.00;;;;;;5015575;28;20000;-63
2021/07/21 06:35:01;;;;;;;;;;;20.10;63.90;;;;;;5017327;28;19944;-62
2021/07/21 06:37:26;;;;;;;;;;;20.10;63.90;;;;;;5018847;28;19941;-63
2021/07/21 06:39:51;;;;;;;;;;;20.20;63.90;;;;;;5018950;28;20358;-62
2021/07/21 06:42:17;;;;;;;;;;;20.10;63.70;;;;;;5019229;28;19928;-61
2021/07/21 06:44:42;;;;;;;;;;;20.20;62.40;;;;;;5019458;28;19928;-63
2021/07/21 06:47:08;;;;;;;;;;;20.10;63.60;;;;;;5017422;28;20366;-62
2021/07/21 06:49:33;;;;;;;;;;;20.10;63.60;;;;;;5018366;28;19913;-62
2021/07/21 06:51:59;;;;;;;;;;;20.10;63.60;;;;;;5018721;28;20008;-61
2021/07/21 06:54:24;;;;;;;;;;;20.10;63.60;;;;;;5016179;28;19982;-61
2021/07/21 06:56:50;;;;;;;;;;;20.10;63.60;;;;;;5017661;28;19917;-61
2021/07/21 06:59:15;;;;;;;;;;;20.20;63.40;;;;;;5019292;28;20362;-61
2021/07/21 07:01:40;;;;;;;;;;;20.20;63.40;;;;;;5018190;28;19917;-61
2021/07/21 07:04:06;;;;;;;;;;;20.20;62.20;;;;;;5015214;28;19971;-61
2021/07/21 07:06:33;;;;;;;;;;;20.20;63.10;;;;;;5031590;28;19928;-61
2021/07/21 07:08:58;;;;;;;;;;;20.20;62.50;;;;;;5012391;28;20305;-62
2021/07/21 07:11:24;;;;;;;;;;;20.20;62.90;;;;;;5017131;28;19921;-61
2021/07/21 07:13:49;;;;;;;;;;;20.20;62.60;;;;;;5016971;28;20025;-61
2021/07/21 07:16:15;;;;;;;;;;;20.10;63.00;;;;;;5019092;28;19920;-59
2021/07/21 07:18:40;;;;;;;;;;;20.10;62.80;;;;;;5018014;28;19925;-60
2021/07/21 07:21:06;;;;;;;;;;;20.10;62.60;;;;;;5016140;28;20392;-60
2021/07/21 07:23:31;;;;;;;;;;;20.10;63.10;;;;;;5018846;28;19921;-61
2021/07/21 07:25:57;;;;;;;;;;;20.10;63.10;;;;;;5019491;28;19913;-62
2021/07/21 07:28:22;;;;;;;;;;;20.10;62.20;;;;;;5019284;28;19917;-62
2021/07/21 07:30:47;;;;;;;;;;;20.10;63.00;;;;;;5017334;28;19917;-59
2021/07/21 07:33:13;;;;;;;;;;;20.10;63.10;;;;;;5018886;28;19920;-61
2021/07/21 07:35:40;;;;;;;;;;;20.10;63.10;;;;;;5018937;28;19913;-60
2021/07/21 07:38:07;;;;;;;;;;;20.10;63.10;;;;;;5017637;28;19920;-61
2021/07/21 07:40:32;;;;;;;;;;;20.10;62.40;;;;;;5015799;28;19917;-61
2021/07/21 07:42:58;;;;;;;;;;;20.10;63.50;;;;;;5017592;28;20329;-59
2021/07/21 07:45:23;;;;;;;;;;;20.00;63.40;;;;;;5014822;28;19913;-61
2021/07/21 07:47:49;;;;;;;;;;;20.00;63.00;;;;;;5015394;28;19917;-61
2021/07/21 07:50:14;;;;;;;;;;;20.00;63.20;;;;;;5018178;28;19928;-61
2021/07/21 07:52:40;;;;;;;;;;;20.00;63.10;;;;;;5014394;28;20275;-60
2021/07/21 07:55:06;;;;;;;;;;;20.00;62.90;;;;;;5016701;28;20043;-59
2021/07/21 07:57:31;;;;;;;;;;;20.00;63.10;;;;;;5017263;28;19917;-58
2021/07/21 07:59:57;;;;;;;;;;;20.00;62.40;;;;;;5017044;28;19964;-59
2021/07/21 08:02:22;;;;;;;;;;;20.00;63.20;;;;;;5017188;28;19921;-58
2021/07/21 08:04:48;;;;;;;;;;;20.00;62.70;;;;;;5019142;28;19974;-58
2021/07/21 08:07:13;;;;;;;;;;;20.10;62.60;;;;;;5020410;28;19913;-58
2021/07/21 08:09:39;;;;;;;;;;;20.00;63.40;;;;;;5019859;28;20032;-59
2021/07/21 08:12:04;;;;;;;;;;;20.00;62.50;;;;;;5018631;28;19966;-58
2021/07/21 08:14:30;;;;;;;;;;;20.00;63.00;;;;;;5020039;28;19920;-58
2021/07/21 08:16:55;;;;;;;;;;;20.00;63.00;;;;;;5017902;28;19913;-59
2021/07/21 08:19:21;;;;;;;;;;;20.00;62.80;;;;;;5018691;28;20466;-62
2021/07/21 08:21:47;;;;;;;;;;;20.00;63.00;;;;;;5017464;28;19921;-59
2021/07/21 08:24:13;;;;;;;;;;;20.00;62.90;;;;;;5018135;28;19913;-63
2021/07/21 08:26:38;;;;;;;;;;;20.00;63.40;;;;;;5016757;28;19923;-59
2021/07/21 08:29:04;;;;;;;;;;;20.00;62.80;;;;;;5013651;28;19913;-62
2021/07/21 08:31:29;;;;;;;;;;;20.00;63.50;;;;;;5009314;28;20413;-58
2021/07/21 08:34:00;;;;;;;;;;;20.00;62.80;;;;;;5024521;28;19928;-60
2021/07/21 08:36:26;;;;;;;;;;;20.00;63.10;;;;;;4978175;28;19949;-60
2021/07/21 08:38:52;;;;;;;;;;;20.00;63.00;;;;;;4977754;28;19948;-59
2021/07/21 08:41:18;;;;;;;;;;;20.00;62.80;;;;;;4979693;28;20367;-60
2021/07/21 08:43:43;;;;;;;;;;;20.00;63.00;;;;;;5015585;28;19928;-58
2021/07/21 08:46:09;;;;;;;;;;;20.00;61.50;;;;;;5018679;28;19923;-62
2021/07/21 08:48:34;;;;;;;;;;;20.00;62.30;;;;;;5019828;28;19924;-62
2021/07/21 08:50:59;;;;;;;;;;;20.00;61.80;;;;;;5019918;28;19928;-61
2021/07/21 08:53:25;;;;;;;;;;;20.00;61.20;;;;;;5004887;28;19921;-62
2021/07/21 08:55:50;;;;;;;;;;;20.00;63.30;;;;;;5021893;28;20640;-62
2021/07/21 08:58:17;;;;;;;;;;;20.00;63.30;;;;;;5020279;28;19971;-59
2021/07/21 09:00:43;;;;;;;;;;;20.00;63.60;;;;;;5020644;28;19913;-62
2021/07/21 09:03:08;;;;;;;;;;;20.00;63.40;;;;;;5022740;28;19921;-62
2021/07/21 09:05:34;;;;;;;;;;;20.00;63.30;;;;;;5012573;28;19913;-58
2021/07/21 09:07:59;;;;;;;;;;;20.00;63.70;;;;;;5011722;28;19913;-59
2021/07/21 09:10:24;;;;;;;;;;;20.00;63.70;;;;;;5018327;28;19943;-62
2021/07/21 09:12:50;;;;;;;;;;;20.00;63.80;;;;;;5021493;28;19917;-62
2021/07/21 09:15:16;;;;;;;;;;;20.00;63.80;;;;;;5019434;28;20000;-61
2021/07/21 09:18:01;;;;;;;;;;;20.00;63.80;;;;;;5020011;28;19925;-63
2021/07/21 09:20:27;;;;;;;;;;;19.90;63.90;;;;;;5019156;28;19922;-58
2021/07/21 09:22:53;;;;;;;;;;;20.00;64.00;;;;;;5020513;28;19925;-61
2021/07/21 09:25:19;;;;;;;;;;;20.00;64.10;;;;;;5017561;28;20412;-61
2021/07/21 09:27:49;;;;;;;;;;;19.90;64.10;;;;;;5019813;28;19924;-60
2021/07/21 09:30:15;;;;;;;;;;;20.00;64.10;;;;;;5018847;28;20066;-59
2021/07/21 09:32:51;;;;;;;;;;;20.00;63.80;;;;;;5021167;28;19935;-60
2021/07/21 09:35:16;;;;;;;;;;;20.00;64.20;;;;;;5020190;28;19924;-59
2021/07/21 09:37:42;;;;;;;;;;;20.00;64.20;;;;;;5046648;22;19921;-69
2021/07/21 09:40:08;;;;;;;;;;;20.00;63.60;;;;;;4992629;28;19928;-69
2021/07/21 09:42:34;;;;;;;;;;;20.00;63.80;;;;;;4983026;28;19936;-71
2021/07/21 09:45:00;;;;;;;;;;;20.00;63.90;;;;;;4998861;28;19914;-71
2021/07/21 09:47:25;;;;;;;;;;;20.00;64.40;;;;;;4992074;28;19941;-70
2021/07/21 09:49:51;;;;;;;;;;;20.00;63.90;;;;;;5014212;28;19925;-69
2021/07/21 09:52:24;;;;;;;;;;;20.00;64.30;;;;;;4993165;28;19995;-69
2021/07/21 09:55:08;;;;;;;;;;;20.00;64.30;;;;;;4990162;28;19921;-68
2021/07/21 09:57:33;;;;;;;;;;;20.00;63.80;;;;;;4981646;28;19918;-68
2021/07/21 09:59:59;;;;;;;;;;;20.00;62.70;;;;;;5014028;28;19924;-67
2021/07/21 10:02:27;;;;;;;;;;;20.00;62.90;;;;;;5020783;28;19921;-67
2021/07/21 10:04:53;;;;;;;;;;;20.00;62.70;;;;;;5021427;28;20586;-67
2021/07/21 10:07:49;;;;;;;;;;;20.00;62.40;;;;;;5019136;28;19913;-66
2021/07/21 10:10:19;;;;;;;;;;;20.00;63.30;;;;;;5018587;28;19917;-68
2021/07/21 10:12:44;;;;;;;;;;;20.00;62.50;;;;;;5022121;28;19920;-65
2021/07/21 10:15:10;;;;;;;;;;;20.00;62.10;;;;;;5023565;28;20346;-69
2021/07/21 10:17:35;;;;;;;;;;;20.00;61.30;;;;;;5022007;28;19917;-66
2021/07/21 10:20:01;;;;;;;;;;;20.00;61.10;;;;;;5023085;28;19917;-68
2021/07/21 10:22:26;;;;;;;;;;;20.00;61.20;;;;;;5022859;28;20479;-67
2021/07/21 10:24:52;;;;;;;;;;;20.00;60.60;;;;;;5020965;28;20543;-64
2021/07/21 10:27:18;;;;;;;;;;;20.00;60.40;;;;;;5021913;28;19914;-69
2021/07/21 10:29:43;;;;;;;;;;;20.00;60.20;;;;;;5021186;28;19959;-68
2021/07/21 10:32:10;;;;;;;;;;;20.00;60.70;;;;;;5005560;28;19919;-70
2021/07/21 10:34:36;;;;;;;;;;;20.00;61.10;;;;;;5021569;28;19913;-70
2021/07/21 10:37:01;;;;;;;;;;;20.00;61.00;;;;;;5022572;28;19920;-68
2021/07/21 10:39:33;;;;;;;;;;;20.00;60.30;;;;;;5022589;28;19921;-68
2021/07/21 10:42:02;;;;;;;;;;;20.00;61.00;;;;;;5021988;28;20044;-67
2021/07/21 10:44:28;;;;;;;;;;;20.00;60.00;;;;;;5022091;28;19978;-70
2021/07/21 10:46:54;;;;;;;;;;;20.10;60.40;;;;;;5021655;28;19917;-64
2021/07/21 10:49:26;;;;;;;;;;;20.10;59.80;;;;;;5021374;28;19917;-70
2021/07/21 10:54:58;;;;;;;;;;;20.00;60.70;;;;;;5018421;28;20609;-69
2021/07/21 11:00:12;;;;;;;;;;;20.00;57.70;;;;;;5030444;28;19939;-68
2021/07/21 11:02:37;;;;;;;;;;;20.00;59.80;;;;;;5022002;28;19921;-68
2021/07/21 11:05:03;;;;;;;;;;;20.00;59.80;;;;;;5021350;28;19913;-70
2021/07/21 11:07:47;;;;;;;;;;;20.00;60.20;;;;;;5019259;28;19913;-68
2021/07/21 11:10:13;;;;;;;;;;;20.00;60.00;;;;;;5022286;28;19913;-69
2021/07/21 11:12:46;;;;;;;;;;;20.00;60.50;;;;;;5018533;28;19968;-65
2021/07/21 11:15:23;;;;;;;;;;;20.00;60.70;;;;;;5020903;28;20715;-66
2021/07/21 11:18:08;;;;;;;;;;;20.00;60.40;;;;;;5014927;28;22395;-68
2021/07/21 11:21:03;;;;;;;;;;;20.00;60.60;;;;;;5022291;28;19970;-65
2021/07/21 11:23:41;;;;;;;;;;;20.00;60.80;;;;;;4982771;28;19936;-65
2021/07/21 11:26:25;;;;;;;;;;;20.00;60.70;;;;;;5001263;28;19917;-69
2021/07/21 11:28:51;;;;;;;;;;;20.00;60.00;;;;;;5007567;28;19917;-69
2021/07/21 11:31:16;;;;;;;;;;;20.00;60.20;;;;;;5020985;28;20521;-68
2021/07/21 11:33:43;;;;;;;;;;;20.00;59.90;;;;;;5017434;28;19913;-65
2021/07/21 11:36:09;;;;;;;;;;;20.00;59.50;;;;;;4989307;28;19922;-69
2021/07/21 11:38:45;;;;;;;;;;;20.10;59.50;;;;;;4996554;28;20431;-65
2021/07/21 11:41:10;;;;;;;;;;;20.10;59.80;;;;;;5020887;28;19913;-68
2021/07/21 11:43:36;;;;;;;;;;;20.00;59.90;;;;;;5018869;28;19921;-71
2021/07/21 11:46:02;;;;;;;;;;;20.10;59.60;;;;;;5021751;28;19917;-68
2021/07/21 11:48:28;;;;;;;;;;;20.10;59.60;;;;;;5017190;28;20012;-70
2021/07/21 11:50:53;;;;;;;;;;;20.10;59.70;;;;;;5020046;28;20112;-65
2021/07/21 11:53:21;;;;;;;;;;;20.10;59.60;;;;;;5018894;28;19999;-65
2021/07/21 11:55:46;;;;;;;;;;;20.10;58.80;;;;;;5019610;28;19914;-69
2021/07/21 11:58:12;;;;;;;;;;;20.10;58.90;;;;;;5017134;28;19917;-68
2021/07/21 12:00:37;;;;;;;;;;;20.10;58.90;;;;;;5020763;28;19920;-64
2021/07/21 12:03:05;;;;;;;;;;;20.10;59.40;;;;;;5018130;28;19925;-66
2021/07/21 12:05:31;;;;;;;;;;;20.10;59.80;;;;;;5004483;28;19975;-66
2021/07/21 12:08:00;;;;;;;;;;;20.10;60.10;;;;;;5018846;28;20395;-66
2021/07/21 12:10:25;;;;;;;;;;;20.10;60.00;;;;;;5022257;28;19917;-65
2021/07/21 12:12:52;;;;;;;;;;;20.00;60.10;;;;;;5017873;28;19921;-66
2021/07/21 12:15:18;;;;;;;;;;;20.10;60.20;;;;;;5003924;28;19921;-70
2021/07/21 12:17:43;;;;;;;;;;;20.10;59.60;;;;;;5019182;28;19917;-67
2021/07/21 12:20:10;;;;;;;;;;;20.10;58.30;;;;;;5009753;28;19913;-67
2021/07/21 12:22:36;;;;;;;;;;;20.10;59.00;;;;;;5017647;28;20561;-68
2021/07/21 12:25:04;;;;;;;;;;;20.10;59.60;;;;;;5019514;28;20299;-71
2021/07/21 12:27:30;;;;;;;;;;;20.10;58.70;;;;;;5016526;28;19918;-71
2021/07/21 12:29:56;;;;;;;;;;;20.10;58.60;;;;;;5019377;28;19920;-68
2021/07/21 12:32:22;;;;;;;;;;;20.10;59.10;;;;;;5018674;28;19917;-69
2021/07/21 12:34:48;;;;;;;;;;;20.10;59.50;;;;;;5021528;28;20005;-67
2021/07/21 12:37:14;;;;;;;;;;;20.10;60.10;;;;;;5017337;28;20582;-69
2021/07/21 12:39:40;;;;;;;;;;;20.10;60.30;;;;;;5019900;28;19921;-68
2021/07/21 12:42:26;;;;;;;;;;;20.10;60.00;;;;;;5018782;28;19924;-69
2021/07/21 12:44:56;;;;;;;;;;;20.10;59.90;;;;;;5019011;28;19968;-68
2021/07/21 12:47:23;;;;;;;;;;;20.10;60.10;;;;;;5013973;28;19913;-65
2021/07/21 12:49:52;;;;;;;;;;;20.10;60.00;;;;;;5010730;28;20061;-65
2021/07/21 12:52:18;;;;;;;;;;;20.10;60.10;;;;;;4987497;28;20064;-64
2021/07/21 12:54:48;;;;;;;;;;;20.10;59.90;;;;;;5020995;28;20696;-67
2021/07/21 12:57:13;;;;;;;;;;;20.10;59.60;;;;;;5019687;28;19913;-67
2021/07/21 12:59:39;;;;;;;;;;;20.20;58.50;;;;;;5022094;28;19924;-68
2021/07/21 13:02:05;;;;;;;;;;;20.20;59.50;;;;;;5018361;28;20366;-67
2021/07/21 13:04:31;;;;;;;;;;;20.10;59.90;;;;;;5020260;28;20030;-68
2021/07/21 13:07:06;;;;;;;;;;;20.10;60.10;;;;;;5018536;28;19917;-64
2021/07/21 13:09:32;;;;;;;;;;;20.10;59.90;;;;;;5020046;28;19913;-65
2021/07/21 13:11:58;;;;;;;;;;;20.20;59.90;;;;;;5017308;28;20544;-67
2021/07/21 13:14:23;;;;;;;;;;;20.20;59.80;;;;;;5021267;28;19913;-70
2021/07/21 13:16:49;;;;;;;;;;;20.20;59.70;;;;;;5018959;28;20440;-72
2021/07/21 13:19:14;;;;;;;;;;;20.20;59.20;;;;;;5003119;28;19980;-71
2021/07/21 13:21:42;;;;;;;;;;;20.20;59.80;;;;;;5020400;28;19913;-67
2021/07/21 13:24:12;;;;;;;;;;;20.20;59.90;;;;;;5018620;28;20004;-69
2021/07/21 13:26:38;;;;;;;;;;;20.20;58.80;;;;;;5020141;28;19913;-65
2021/07/21 13:29:04;;;;;;;;;;;20.20;59.80;;;;;;5015677;28;19928;-71
2021/07/21 13:31:33;;;;;;;;;;;20.20;59.10;;;;;;5022116;28;19913;-70
2021/07/21 13:33:59;;;;;;;;;;;20.20;59.70;;;;;;5023017;28;19913;-68
2021/07/21 13:36:28;;;;;;;;;;;20.20;60.70;;;;;;5023861;28;19996;-64
2021/07/21 13:39:00;;;;;;;;;;;20.20;61.20;;;;;;5019258;28;19921;-66
2021/07/21 13:41:30;;;;;;;;;;;20.20;59.70;;;;;;5023760;28;19996;-69
2021/07/21 13:43:56;;;;;;;;;;;20.20;59.30;;;;;;5023773;28;20462;-72
2021/07/21 13:46:28;;;;;;;;;;;20.30;59.20;;;;;;5025851;28;20361;-69
2021/07/21 13:48:57;;;;;;;;;;;20.30;58.70;;;;;;5021542;28;19928;-67
2021/07/21 13:51:27;;;;;;;;;;;20.30;59.50;;;;;;5024895;28;20004;-69
2021/07/21 13:53:52;;;;;;;;;;;20.30;60.50;;;;;;5021932;28;19913;-70
2021/07/21 13:56:17;;;;;;;;;;;20.20;61.10;;;;;;5023662;28;19921;-64
2021/07/21 13:58:43;;;;;;;;;;;20.30;60.50;;;;;;5018757;28;19921;-67
2021/07/21 14:01:08;;;;;;;;;;;20.30;60.00;;;;;;5024786;28;20373;-65
2021/07/21 14:03:34;;;;;;;;;;;20.30;60.80;;;;;;5022922;28;19947;-68
2021/07/21 14:05:59;;;;;;;;;;;20.30;60.70;;;;;;5022830;28;19920;-70
2021/07/21 14:08:25;;;;;;;;;;;20.30;60.20;;;;;;5021671;28;19917;-69
2021/07/21 14:10:50;;;;;;;;;;;20.30;60.50;;;;;;5024283;28;19921;-70
2021/07/21 14:13:16;;;;;;;;;;;20.30;60.50;;;;;;5022085;28;20611;-68
2021/07/21 14:15:41;;;;;;;;;;;20.30;60.60;;;;;;5023699;28;19920;-69
2021/07/21 14:18:07;;;;;;;;;;;20.30;60.60;;;;;;5020473;28;19921;-68
2021/07/21 14:20:32;;;;;;;;;;;20.30;60.50;;;;;;5023854;28;20548;-69
2021/07/21 14:22:58;;;;;;;;;;;20.30;59.90;;;;;;5021473;28;19928;-65
2021/07/21 14:25:23;;;;;;;;;;;20.30;60.60;;;;;;5024094;28;20466;-71
2021/07/21 14:27:48;;;;;;;;;;;20.30;60.80;;;;;;5019594;28;19920;-68